Time;durP1;ratioP1;P1;durP2;ratioP2;P2;SDS_P1;SDS_P2;PMS_P1;PMS_P2;Temp;Humidity;BMP_temperature;BMP_pressure;BME280_temperature;BME280_humidity;BME280_pressure;Samples;Min_cycle;Max_cycle;Signal;HPM_P1;HPM_P2
2022/12/13 00:00:09;;;;;;;16.60;9.10;;;19.20;49.60;;;;;;4973391;28;20491;-59
2022/12/13 00:02:34;;;;;;;14.00;9.18;;;19.20;49.60;;;;;;4972751;28;20058;-58
2022/12/13 00:05:00;;;;;;;13.55;8.80;;;19.20;49.70;;;;;;4972885;28;20050;-59
2022/12/13 00:07:25;;;;;;;14.13;9.55;;;19.20;49.80;;;;;;4972233;28;20418;-59
2022/12/13 00:09:51;;;;;;;12.32;9.00;;;19.20;49.80;;;;;;4972914;28;20116;-58
2022/12/13 00:12:17;;;;;;;13.85;8.98;;;19.10;49.80;;;;;;4973436;28;20046;-58
2022/12/13 00:14:42;;;;;;;14.52;9.90;;;19.20;49.70;;;;;;4972986;28;20034;-58
2022/12/13 00:17:08;;;;;;;13.27;9.38;;;19.10;49.50;;;;;;4973603;28;20486;-57
2022/12/13 00:19:33;;;;;;;14.48;9.57;;;19.10;49.50;;;;;;4973871;28;20038;-58
2022/12/13 00:21:59;;;;;;;13.82;9.02;;;19.10;49.50;;;;;;4973866;28;20379;-58
2022/12/13 00:24:24;;;;;;;12.32;8.98;;;19.10;49.50;;;;;;4972728;28;20046;-58
2022/12/13 00:26:52;;;;;;;13.27;9.48;;;19.10;49.50;;;;;;4973589;28;20047;-58
2022/12/13 00:29:18;;;;;;;13.32;8.75;;;19.10;49.50;;;;;;4972937;28;20545;-58
2022/12/13 00:31:43;;;;;;;14.77;9.80;;;19.00;49.50;;;;;;4973169;28;20047;-58
2022/12/13 00:34:09;;;;;;;14.07;9.38;;;19.00;49.50;;;;;;4973514;28;20041;-58
2022/12/13 00:36:34;;;;;;;12.98;9.07;;;19.00;49.40;;;;;;4973126;28;20406;-58
2022/12/13 00:39:00;;;;;;;12.63;9.07;;;19.00;49.50;;;;;;4973180;28;20047;-58
2022/12/13 00:41:30;;;;;;;12.65;8.95;;;19.00;49.50;;;;;;4973359;28;20050;-58
2022/12/13 00:43:56;;;;;;;12.93;8.52;;;18.90;49.50;;;;;;4972223;28;20503;-59
2022/12/13 00:46:22;;;;;;;12.35;9.30;;;19.00;49.50;;;;;;4973582;28;20482;-58
2022/12/13 00:48:51;;;;;;;12.13;8.82;;;18.90;49.40;;;;;;4973532;28;20130;-58
2022/12/13 00:51:17;;;;;;;12.43;9.35;;;19.00;49.50;;;;;;4972530;28;20050;-58
2022/12/13 00:53:43;;;;;;;16.48;9.40;;;18.90;49.50;;;;;;4973501;28;20137;-58
2022/12/13 00:56:13;;;;;;;12.75;8.57;;;18.90;49.40;;;;;;4973026;28;20487;-58
2022/12/13 00:58:39;;;;;;;13.82;9.00;;;18.90;49.40;;;;;;4972779;28;20047;-58
2022/12/13 01:01:09;;;;;;;11.55;8.27;;;18.90;49.50;;;;;;4973565;28;20046;-58
2022/12/13 01:03:35;;;;;;;12.40;8.82;;;18.90;49.40;;;;;;4972964;28;20039;-58
2022/12/13 01:06:00;;;;;;;12.48;9.15;;;18.90;49.50;;;;;;4971397;28;20070;-58
2022/12/13 01:08:27;;;;;;;11.65;8.88;;;18.80;49.40;;;;;;4973324;28;20109;-58
2022/12/13 01:10:53;;;;;;;13.07;9.38;;;18.80;49.50;;;;;;4972929;28;20034;-58
2022/12/13 01:13:18;;;;;;;13.52;9.02;;;18.80;49.40;;;;;;4971533;28;20069;-58
2022/12/13 01:15:45;;;;;;;12.50;8.93;;;18.80;49.40;;;;;;4972930;28;20072;-58
2022/12/13 01:18:11;;;;;;;12.38;8.90;;;18.80;49.40;;;;;;4973705;28;20077;-58
2022/12/13 01:20:37;;;;;;;11.57;8.82;;;18.80;49.40;;;;;;4976351;28;20047;-58
2022/12/13 01:23:03;;;;;;;12.68;9.02;;;18.80;49.40;;;;;;4977016;28;20046;-58
2022/12/13 01:25:28;;;;;;;13.68;9.65;;;18.80;49.40;;;;;;4976692;28;20085;-58
2022/12/13 01:27:54;;;;;;;12.02;8.90;;;18.70;49.40;;;;;;4976404;28;20497;-58
2022/12/13 01:30:20;;;;;;;13.50;8.73;;;18.70;49.40;;;;;;4976544;28;20043;-58
2022/12/13 01:32:45;;;;;;;14.80;9.60;;;18.70;49.40;;;;;;4976912;28;20035;-58
2022/12/13 01:35:12;;;;;;;14.45;9.00;;;18.70;49.30;;;;;;4975907;28;20446;-58
2022/12/13 01:37:38;;;;;;;13.48;9.57;;;18.70;49.30;;;;;;4977002;28;20043;-58
2022/12/13 01:40:04;;;;;;;13.55;9.23;;;18.70;49.30;;;;;;4976788;28;20045;-58
2022/12/13 01:42:30;;;;;;;11.77;8.57;;;18.70;49.30;;;;;;4975692;28;20132;-58
2022/12/13 01:44:55;;;;;;;12.85;8.60;;;18.70;49.30;;;;;;4971226;28;20046;-59
2022/12/13 01:47:33;;;;;;;13.13;9.50;;;18.70;49.20;;;;;;4975383;28;20043;-58
2022/12/13 01:50:12;;;;;;;13.02;9.32;;;18.70;49.20;;;;;;4975535;28;20047;-58
2022/12/13 01:52:38;;;;;;;13.43;9.48;;;18.60;49.10;;;;;;4976309;28;20115;-58
2022/12/13 01:55:04;;;;;;;13.00;8.70;;;18.70;50.00;;;;;;4974970;28;20055;-58
2022/12/13 01:57:30;;;;;;;14.15;9.82;;;18.70;49.20;;;;;;4958945;28;20070;-58
2022/12/13 01:59:55;;;;;;;12.95;9.15;;;18.70;49.10;;;;;;4976229;28;20042;-58
2022/12/13 02:02:21;;;;;;;13.80;9.32;;;18.70;49.00;;;;;;4973861;28;20043;-58
2022/12/13 02:05:10;;;;;;;13.45;9.50;;;18.70;49.00;;;;;;4976100;28;20051;-58
2022/12/13 02:07:36;;;;;;;15.57;9.93;;;18.70;49.00;;;;;;4975133;28;20049;-58
2022/12/13 02:10:03;;;;;;;15.35;10.43;;;18.70;49.00;;;;;;4974743;28;20047;-58
2022/12/13 02:12:31;;;;;;;14.93;9.23;;;18.70;49.00;;;;;;4976055;28;20053;-58
2022/12/13 02:15:01;;;;;;;14.95;10.02;;;18.70;49.00;;;;;;4976028;28;20126;-59
2022/12/13 02:17:52;;;;;;;12.77;9.30;;;18.70;48.90;;;;;;4957836;28;20470;-58
2022/12/13 02:20:18;;;;;;;13.48;9.63;;;18.80;48.90;;;;;;4974371;28;20066;-58
2022/12/13 02:23:21;;;;;;;13.82;9.45;;;18.80;49.00;;;;;;4975434;28;20047;-58
2022/12/13 02:26:04;;;;;;;14.75;9.80;;;18.80;48.90;;;;;;4972679;28;20399;-58
2022/12/13 02:28:32;;;;;;;15.52;9.75;;;18.80;48.90;;;;;;4974353;28;20486;-58
2022/12/13 02:31:17;;;;;;;13.07;9.30;;;18.80;48.80;;;;;;4975250;28;20050;-58
2022/12/13 02:33:55;;;;;;;14.23;9.57;;;18.80;48.80;;;;;;4974943;28;20493;-58
2022/12/13 02:36:34;;;;;;;15.50;10.07;;;18.80;48.80;;;;;;4974117;28;20043;-58
2022/12/13 02:39:20;;;;;;;13.73;9.55;;;18.80;48.80;;;;;;4974607;28;20050;-58
2022/12/13 02:41:50;;;;;;;13.95;9.70;;;18.80;48.80;;;;;;4973968;28;20035;-58
2022/12/13 02:44:23;;;;;;;13.60;9.55;;;18.90;48.90;;;;;;4973263;28;20054;-58
2022/12/13 02:46:59;;;;;;;13.80;9.60;;;18.80;48.80;;;;;;4974278;28;20479;-58
2022/12/13 02:49:25;;;;;;;15.10;9.45;;;18.90;48.80;;;;;;4973789;28;20042;-58
2022/12/13 02:51:51;;;;;;;17.02;9.85;;;18.90;48.70;;;;;;4973766;28;20050;-58
2022/12/13 02:54:17;;;;;;;14.25;10.18;;;18.90;48.70;;;;;;4975003;28;20372;-58
2022/12/13 02:56:52;;;;;;;15.35;10.30;;;18.90;48.70;;;;;;4975210;28;20058;-58
2022/12/13 02:59:18;;;;;;;15.00;10.13;;;18.90;48.70;;;;;;4974254;28;20047;-58
2022/12/13 03:01:48;;;;;;;14.50;10.15;;;18.90;48.70;;;;;;4968647;28;20042;-58
2022/12/13 03:04:16;;;;;;;15.27;10.18;;;18.90;48.70;;;;;;4973175;28;20043;-58
2022/12/13 03:07:18;;;;;;;14.32;9.68;;;18.90;48.60;;;;;;4974416;28;20503;-58
2022/12/13 03:09:55;;;;;;;14.38;9.85;;;18.90;48.60;;;;;;4974987;28;20050;-58
2022/12/13 03:15:26;;;;;;;14.98;9.75;;;18.90;48.60;;;;;;4973565;28;20054;-58
2022/12/13 03:17:59;;;;;;;14.27;9.35;;;18.90;48.60;;;;;;4973724;28;20051;-58
2022/12/13 03:20:26;;;;;;;16.05;10.40;;;18.90;48.60;;;;;;4972827;28;20402;-58
2022/12/13 03:22:52;;;;;;;16.15;10.63;;;18.90;48.60;;;;;;4973636;28;20041;-58
2022/12/13 03:25:19;;;;;;;15.70;10.38;;;18.90;48.50;;;;;;4973356;28;20050;-58
2022/12/13 03:27:44;;;;;;;14.93;10.93;;;18.90;48.50;;;;;;4974387;28;20057;-58
2022/12/13 03:30:10;;;;;;;14.73;9.27;;;18.90;48.50;;;;;;4973199;28;20047;-58
2022/12/13 03:32:36;;;;;;;14.48;9.80;;;18.90;48.40;;;;;;4974431;28;20507;-58
2022/12/13 03:35:01;;;;;;;15.75;10.13;;;18.90;48.30;;;;;;4974405;28;20486;-58
2022/12/13 03:37:27;;;;;;;15.85;9.55;;;18.90;48.30;;;;;;4974174;28;20069;-58
2022/12/13 03:39:53;;;;;;;14.70;10.30;;;18.90;48.30;;;;;;4974139;28;20407;-58
2022/12/13 03:42:18;;;;;;;15.70;10.15;;;19.00;48.40;;;;;;4973307;28;20050;-58
2022/12/13 03:44:44;;;;;;;14.88;10.30;;;18.90;48.30;;;;;;4972476;28;20058;-58
2022/12/13 03:47:09;;;;;;;15.10;10.23;;;18.90;48.30;;;;;;4973523;28;20046;-58
2022/12/13 03:49:35;;;;;;;15.27;9.90;;;19.00;48.30;;;;;;4974480;28;20402;-59
2022/12/13 03:52:00;;;;;;;15.77;10.50;;;19.00;48.30;;;;;;4974123;28;20050;-58
2022/12/13 03:54:26;;;;;;;16.60;10.50;;;19.00;48.30;;;;;;4973636;28;20046;-58
2022/12/13 03:56:51;;;;;;;14.65;10.02;;;19.00;48.20;;;;;;4974058;28;20042;-58
2022/12/13 03:59:17;;;;;;;14.88;10.13;;;19.00;48.20;;;;;;4973439;28;20156;-58
2022/12/13 04:01:42;;;;;;;16.40;10.10;;;19.00;48.20;;;;;;4973710;28;20047;-58
2022/12/13 04:04:08;;;;;;;15.80;11.00;;;19.00;48.10;;;;;;4974021;28;20450;-58
2022/12/13 04:06:34;;;;;;;16.25;10.40;;;19.00;48.10;;;;;;4974036;28;20046;-59
2022/12/13 04:08:59;;;;;;;14.30;10.25;;;19.10;48.20;;;;;;4973327;28;20126;-58
2022/12/13 04:14:10;;;;;;;15.40;9.55;;;19.00;48.00;;;;;;4973459;28;20043;-58
2022/12/13 04:16:36;;;;;;;14.88;11.10;;;19.10;48.10;;;;;;4973692;28;20050;-59
2022/12/13 04:19:01;;;;;;;18.92;11.27;;;19.10;48.00;;;;;;4973979;28;20046;-58
2022/12/13 04:21:27;;;;;;;15.32;10.30;;;19.10;48.00;;;;;;4973448;28;20133;-58
2022/12/13 04:23:53;;;;;;;14.80;10.52;;;19.10;48.00;;;;;;4973294;28;20043;-58
2022/12/13 04:26:18;;;;;;;15.02;10.25;;;19.10;47.90;;;;;;4973419;28;20039;-58
2022/12/13 04:28:44;;;;;;;15.18;10.27;;;19.10;47.90;;;;;;4973617;28;20125;-61
2022/12/13 04:31:10;;;;;;;17.02;10.85;;;19.10;47.90;;;;;;4970925;28;20092;-58
2022/12/13 04:33:35;;;;;;;16.85;10.85;;;19.10;47.90;;;;;;4968172;28;20070;-57
2022/12/13 04:36:01;;;;;;;16.17;10.82;;;19.10;47.90;;;;;;4973077;28;20043;-58
2022/12/13 04:38:27;;;;;;;15.98;10.38;;;19.10;47.90;;;;;;4973191;28;20158;-58
2022/12/13 04:40:52;;;;;;;16.95;11.02;;;19.20;47.90;;;;;;4973716;28;20116;-58
2022/12/13 04:43:18;;;;;;;15.52;10.40;;;19.10;47.90;;;;;;4972622;28;20054;-58
2022/12/13 04:45:43;;;;;;;19.52;11.27;;;19.20;47.90;;;;;;4973273;28;20526;-58
2022/12/13 04:48:09;;;;;;;16.60;10.93;;;19.20;47.90;;;;;;4973123;28;20137;-58
2022/12/13 04:50:35;;;;;;;17.25;10.68;;;19.20;47.80;;;;;;4973228;28;20046;-58
2022/12/13 04:53:00;;;;;;;16.70;10.65;;;19.20;47.80;;;;;;4973948;28;20042;-57
2022/12/13 04:55:26;;;;;;;14.40;10.48;;;19.20;47.80;;;;;;4977006;28;20394;-57
2022/12/13 04:57:51;;;;;;;16.10;10.55;;;19.20;47.70;;;;;;4976813;28;20047;-57
2022/12/13 05:00:17;;;;;;;16.83;10.85;;;19.20;47.70;;;;;;4976762;28;20054;-57
2022/12/13 05:02:42;;;;;;;14.98;10.52;;;19.20;47.70;;;;;;4976900;28;20475;-57
2022/12/13 05:05:08;;;;;;;16.30;10.88;;;19.20;47.70;;;;;;4976392;28;20077;-58
2022/12/13 05:07:34;;;;;;;16.55;11.10;;;19.20;47.60;;;;;;4976891;28;20082;-58
2022/12/13 05:10:00;;;;;;;16.83;11.00;;;19.20;47.60;;;;;;4977196;28;20043;-57
2022/12/13 05:12:25;;;;;;;14.98;10.30;;;19.20;47.50;;;;;;4976217;28;20105;-58
2022/12/13 05:14:51;;;;;;;15.32;10.73;;;19.30;47.60;;;;;;4977279;28;20045;-58
2022/12/13 05:17:17;;;;;;;16.08;9.98;;;19.20;48.20;;;;;;4976528;28;20438;-57
2022/12/13 05:19:42;;;;;;;16.85;10.60;;;19.30;47.60;;;;;;4976577;28;20043;-57
2022/12/13 05:22:14;;;;;;;17.35;11.27;;;19.30;47.50;;;;;;4977134;28;20050;-57
2022/12/13 05:24:41;;;;;;;16.17;10.95;;;19.30;47.50;;;;;;4977156;28;20054;-57
2022/12/13 05:27:07;;;;;;;15.50;10.45;;;19.30;47.50;;;;;;4976562;28;20047;-57
2022/12/13 05:29:32;;;;;;;16.50;11.30;;;19.30;47.50;;;;;;4976708;28;20050;-57
2022/12/13 05:31:58;;;;;;;15.50;10.57;;;19.30;47.40;;;;;;4976611;28;20446;-57
2022/12/13 05:34:24;;;;;;;16.38;10.63;;;19.30;47.40;;;;;;4976304;28;20047;-57
2022/12/13 05:36:49;;;;;;;16.05;10.10;;;19.30;47.40;;;;;;4976479;28;20490;-57
2022/12/13 05:39:15;;;;;;;15.82;10.70;;;19.30;47.40;;;;;;4976196;28;20427;-57
2022/12/13 05:41:40;;;;;;;16.27;10.63;;;19.30;47.30;;;;;;4976839;28;20464;-57
2022/12/13 05:44:06;;;;;;;15.10;10.07;;;19.30;47.30;;;;;;4976340;28;20051;-57
2022/12/13 05:46:32;;;;;;;17.50;11.23;;;19.30;47.30;;;;;;4975885;28;20046;-57
2022/12/13 05:48:57;;;;;;;15.25;9.88;;;19.30;47.20;;;;;;4976420;28;20043;-57
2022/12/13 05:51:23;;;;;;;16.23;10.85;;;19.30;47.30;;;;;;4975833;28;20051;-57
2022/12/13 05:53:48;;;;;;;16.10;10.43;;;19.30;47.30;;;;;;4976291;28;20051;-58
2022/12/13 05:56:14;;;;;;;15.55;10.35;;;19.30;47.20;;;;;;4976161;28;20042;-57
2022/12/13 05:58:40;;;;;;;14.23;9.80;;;19.30;47.20;;;;;;4976183;28;20462;-57
2022/12/13 06:01:10;;;;;;;17.35;10.60;;;19.30;47.20;;;;;;4975861;28;20046;-57
2022/12/13 06:03:36;;;;;;;15.38;10.55;;;19.40;47.20;;;;;;4976152;28;20057;-58
2022/12/13 06:06:02;;;;;;;15.32;10.18;;;19.40;47.20;;;;;;4976060;28;20039;-57
2022/12/13 06:08:29;;;;;;;16.83;10.95;;;19.40;47.20;;;;;;4975279;28;20499;-57
2022/12/13 06:10:59;;;;;;;14.00;10.23;;;19.40;47.20;;;;;;4976109;28;20087;-57
2022/12/13 06:13:25;;;;;;;16.13;10.85;;;19.40;47.10;;;;;;4970548;28;20050;-57
2022/12/13 06:15:50;;;;;;;15.80;10.80;;;19.40;47.10;;;;;;4975647;28;20035;-57
2022/12/13 06:18:16;;;;;;;16.83;10.35;;;19.40;47.10;;;;;;4975922;28;20042;-57
2022/12/13 06:20:41;;;;;;;14.82;10.18;;;19.40;47.10;;;;;;4975931;28;20384;-57
2022/12/13 06:23:07;;;;;;;15.77;10.48;;;19.40;47.10;;;;;;4975641;28;20055;-57
2022/12/13 06:25:32;;;;;;;16.70;10.80;;;19.40;47.10;;;;;;4975715;28;20054;-57
2022/12/13 06:27:58;;;;;;;15.55;10.57;;;19.40;47.00;;;;;;4975966;28;20039;-57
2022/12/13 06:30:24;;;;;;;13.65;9.60;;;19.40;47.00;;;;;;4975097;28;20406;-57
2022/12/13 06:32:49;;;;;;;14.18;9.98;;;19.40;47.00;;;;;;4975641;28;20042;-58
2022/12/13 06:35:15;;;;;;;14.82;10.23;;;19.40;47.00;;;;;;4975252;28;20050;-57
2022/12/13 06:37:41;;;;;;;16.27;11.05;;;19.40;46.90;;;;;;4975281;28;20043;-58
2022/12/13 06:40:07;;;;;;;14.95;10.00;;;19.40;46.90;;;;;;4974021;28;20057;-58
2022/12/13 06:42:33;;;;;;;14.32;9.50;;;19.50;47.00;;;;;;4974834;28;20058;-58
2022/12/13 06:44:58;;;;;;;15.10;9.82;;;19.40;46.90;;;;;;4975249;28;20059;-58
2022/12/13 06:47:24;;;;;;;15.43;10.60;;;19.40;46.90;;;;;;4974743;28;20035;-58
2022/12/13 06:49:50;;;;;;;14.93;10.32;;;19.50;47.00;;;;;;4974647;28;20553;-59
2022/12/13 06:52:16;;;;;;;16.65;10.05;;;19.50;46.90;;;;;;4973707;28;20125;-58
2022/12/13 06:54:41;;;;;;;14.25;9.60;;;19.40;46.90;;;;;;4975009;28;20487;-58
2022/12/13 06:57:07;;;;;;;14.32;9.48;;;19.50;46.90;;;;;;4974764;28;20046;-58
2022/12/13 06:59:33;;;;;;;15.82;10.60;;;19.40;46.80;;;;;;4974979;28;20117;-58
2022/12/13 07:01:58;;;;;;;15.63;9.85;;;19.50;46.90;;;;;;4974833;28;20050;-58
2022/12/13 07:04:24;;;;;;;14.43;9.27;;;19.50;46.80;;;;;;4974250;28;20069;-58
2022/12/13 07:06:49;;;;;;;15.43;9.93;;;19.50;46.80;;;;;;4974912;28;20105;-59
2022/12/13 07:09:15;;;;;;;14.75;9.27;;;19.50;46.80;;;;;;4974291;28;20050;-58
2022/12/13 07:11:41;;;;;;;17.02;10.07;;;19.50;46.80;;;;;;4974612;28;20575;-58
2022/12/13 07:14:06;;;;;;;14.55;9.55;;;19.50;46.70;;;;;;4974994;28;20039;-59
2022/12/13 07:16:32;;;;;;;15.32;9.88;;;19.50;46.70;;;;;;4973584;28;20495;-58
2022/12/13 07:18:58;;;;;;;16.27;9.98;;;19.50;46.80;;;;;;4969155;28;20055;-58
2022/12/13 07:21:24;;;;;;;15.85;10.20;;;19.50;46.70;;;;;;4974888;28;20062;-58
2022/12/13 07:23:49;;;;;;;14.93;9.88;;;19.50;46.70;;;;;;4974649;28;20046;-58
2022/12/13 07:26:15;;;;;;;14.93;9.70;;;19.50;46.70;;;;;;4973925;28;20043;-58
2022/12/13 07:28:40;;;;;;;15.98;10.30;;;19.50;46.60;;;;;;4974742;28;20042;-58
2022/12/13 07:31:07;;;;;;;16.42;10.75;;;19.50;46.60;;;;;;4973467;28;20053;-58
2022/12/13 07:33:32;;;;;;;15.38;10.90;;;19.50;46.60;;;;;;4973839;28;20054;-58
2022/12/13 07:36:11;;;;;;;15.40;9.38;;;19.50;46.50;;;;;;4974610;28;20093;-58
2022/12/13 07:38:36;;;;;;;18.05;10.85;;;19.50;46.50;;;;;;4974794;28;20501;-58
2022/12/13 07:41:02;;;;;;;15.15;9.93;;;19.50;46.50;;;;;;4973966;28;20042;-58
2022/12/13 07:43:28;;;;;;;17.20;10.93;;;19.60;46.60;;;;;;4973752;28;20050;-58
2022/12/13 07:45:57;;;;;;;18.30;10.82;;;19.50;46.50;;;;;;4973613;28;20043;-57
2022/12/13 07:48:23;;;;;;;18.17;11.10;;;19.60;46.60;;;;;;4974174;28;20545;-57
2022/12/13 07:50:48;;;;;;;15.02;10.63;;;19.50;46.50;;;;;;4974164;28;20050;-57
2022/12/13 07:53:14;;;;;;;14.95;9.80;;;19.60;47.30;;;;;;4973379;28;20046;-57
2022/12/13 07:55:39;;;;;;;17.23;10.88;;;19.60;46.50;;;;;;4974475;28;20499;-57
2022/12/13 07:58:06;;;;;;;16.48;10.48;;;19.60;46.50;;;;;;4973512;28;20042;-58
2022/12/13 08:00:32;;;;;;;17.10;10.88;;;19.60;46.40;;;;;;4972814;28;20042;-57
2022/12/13 08:02:57;;;;;;;16.40;10.13;;;19.60;46.40;;;;;;4974261;28;20173;-58
2022/12/13 08:05:23;;;;;;;18.63;11.05;;;19.60;46.40;;;;;;4973666;28;20085;-57
2022/12/13 08:07:49;;;;;;;18.08;10.55;;;19.60;46.40;;;;;;4973106;28;20039;-57
2022/12/13 08:10:14;;;;;;;16.05;10.13;;;19.60;46.40;;;;;;4974019;28;20185;-57
2022/12/13 08:12:40;;;;;;;16.75;10.23;;;19.60;46.40;;;;;;4973300;28;20569;-57
2022/12/13 08:15:06;;;;;;;18.15;10.20;;;19.60;46.50;;;;;;4973246;28;20043;-56
2022/12/13 08:17:31;;;;;;;19.38;10.73;;;19.60;46.60;;;;;;4972745;28;20050;-57
2022/12/13 08:19:57;;;;;;;17.50;10.23;;;19.60;46.60;;;;;;4973865;28;20052;-57
2022/12/13 08:22:23;;;;;;;17.58;10.43;;;19.60;46.70;;;;;;4972846;28;20039;-57
2022/12/13 08:24:48;;;;;;;18.38;10.35;;;19.60;46.80;;;;;;4975829;28;20094;-57
2022/12/13 08:27:14;;;;;;;19.23;10.30;;;19.60;46.90;;;;;;4973579;28;20050;-56
2022/12/13 08:29:39;;;;;;;16.35;10.20;;;19.60;47.10;;;;;;4973135;28;20491;-57
2022/12/13 08:32:09;;;;;;;16.13;10.38;;;19.60;47.20;;;;;;4973703;28;20070;-57
2022/12/13 08:34:35;;;;;;;15.90;9.55;;;19.60;47.40;;;;;;4973928;28;20093;-57
2022/12/13 08:37:00;;;;;;;17.63;10.52;;;19.60;47.50;;;;;;4973085;28;20042;-57
2022/12/13 08:39:26;;;;;;;15.40;9.75;;;19.60;47.70;;;;;;4973124;28;20045;-58
2022/12/13 08:41:51;;;;;;;15.45;9.75;;;19.70;48.00;;;;;;4973739;28;20050;-57
2022/12/13 08:44:17;;;;;;;15.40;9.35;;;19.70;48.10;;;;;;4972506;28;20478;-58
2022/12/13 08:46:43;;;;;;;17.27;9.90;;;19.70;48.20;;;;;;4973612;28;20046;-58
2022/12/13 08:49:10;;;;;;;17.30;10.07;;;19.70;48.30;;;;;;4973439;28;20049;-58
2022/12/13 08:51:35;;;;;;;16.65;9.73;;;19.70;48.40;;;;;;4975738;28;20364;-58
2022/12/13 08:54:01;;;;;;;17.05;9.30;;;19.70;48.40;;;;;;4984263;28;20053;-58
2022/12/13 08:56:27;;;;;;;17.27;9.93;;;19.80;48.50;;;;;;4992068;28;20525;-58
2022/12/13 08:58:52;;;;;;;14.55;10.00;;;19.70;48.50;;;;;;4992527;28;20046;-58
2022/12/13 09:01:18;;;;;;;17.70;9.88;;;19.80;48.60;;;;;;4984530;28;20043;-57
2022/12/13 09:03:43;;;;;;;16.23;10.07;;;19.80;48.70;;;;;;4960480;28;20510;-57
2022/12/13 09:06:11;;;;;;;14.93;9.48;;;19.80;48.70;;;;;;4972763;28;20042;-57
2022/12/13 09:08:37;;;;;;;14.77;9.27;;;19.80;48.90;;;;;;4973125;28;20097;-57
2022/12/13 09:11:03;;;;;;;15.48;9.48;;;19.80;48.90;;;;;;4972528;28;20039;-57
2022/12/13 09:13:30;;;;;;;15.45;9.73;;;19.80;48.90;;;;;;4971933;28;20066;-57
2022/12/13 09:15:55;;;;;;;16.70;10.10;;;19.90;49.10;;;;;;4972600;28;20043;-57
2022/12/13 09:18:21;;;;;;;16.50;10.10;;;19.90;49.20;;;;;;4972432;28;20039;-58
2022/12/13 09:20:46;;;;;;;14.05;9.88;;;19.90;49.20;;;;;;4973019;28;20503;-57
2022/12/13 09:23:12;;;;;;;15.60;9.23;;;19.90;49.20;;;;;;4972261;28;20047;-57
2022/12/13 09:25:37;;;;;;;13.98;9.20;;;19.90;49.20;;;;;;4967434;28;20134;-58
2022/12/13 09:28:06;;;;;;;17.13;9.30;;;19.90;49.20;;;;;;4973234;28;20069;-58
2022/12/13 09:30:32;;;;;;;14.60;8.82;;;19.90;49.20;;;;;;4972683;28;20046;-58
2022/12/13 09:32:58;;;;;;;15.32;9.25;;;19.90;49.00;;;;;;4972521;28;20046;-58
2022/12/13 09:35:23;;;;;;;16.92;9.38;;;19.90;48.80;;;;;;4972631;28;20426;-59
2022/12/13 09:37:49;;;;;;;13.73;9.00;;;19.90;48.60;;;;;;4973159;28;20058;-59
2022/12/13 09:40:21;;;;;;;14.75;9.60;;;19.90;48.60;;;;;;4974947;28;20402;-59
2022/12/13 09:42:48;;;;;;;14.45;9.13;;;19.90;48.50;;;;;;4974692;28;20117;-58
2022/12/13 09:45:13;;;;;;;14.27;9.07;;;19.90;48.50;;;;;;4974693;28;20558;-58
2022/12/13 09:47:40;;;;;;;13.70;9.52;;;19.90;48.40;;;;;;4975876;28;20047;-57
2022/12/13 09:50:08;;;;;;;14.40;9.25;;;19.90;48.40;;;;;;4975058;28;20047;-56
2022/12/13 09:52:41;;;;;;;13.73;9.23;;;19.90;48.50;;;;;;4976306;28;20054;-56
2022/12/13 09:55:19;;;;;;;14.55;9.27;;;20.00;48.70;;;;;;4975151;28;20042;-55
2022/12/13 09:57:45;;;;;;;14.13;9.20;;;20.00;49.00;;;;;;4976243;28;20105;-57
2022/12/13 10:00:13;;;;;;;15.23;8.80;;;20.00;49.00;;;;;;4975660;28;20491;-57
2022/12/13 10:02:55;;;;;;;14.68;8.95;;;20.00;49.20;;;;;;4975844;28;20042;-57
2022/12/13 10:05:36;;;;;;;13.95;9.00;;;20.00;49.40;;;;;;4975594;28;20069;-56
2022/12/13 10:08:17;;;;;;;15.60;9.32;;;20.00;49.40;;;;;;4975965;28;20141;-57
2022/12/13 10:10:43;;;;;;;13.55;9.13;;;20.00;49.50;;;;;;4974698;28;20376;-57
2022/12/13 10:13:19;;;;;;;13.70;9.38;;;20.00;49.40;;;;;;4975690;28;20039;-57
2022/12/13 10:15:50;;;;;;;14.35;9.00;;;20.10;49.60;;;;;;4973883;28;20050;-57
2022/12/13 10:18:35;;;;;;;13.85;8.95;;;20.10;49.60;;;;;;4975691;28;20133;-57
2022/12/13 10:21:15;;;;;;;14.63;8.88;;;20.10;49.60;;;;;;4974103;28;20046;-57
2022/12/13 10:23:41;;;;;;;14.43;8.68;;;20.10;49.80;;;;;;4959855;28;20038;-56
2022/12/13 10:26:08;;;;;;;15.30;8.48;;;20.10;50.50;;;;;;4972909;28;20499;-57
2022/12/13 10:28:34;;;;;;;13.20;8.48;;;20.10;49.80;;;;;;4971026;28;20502;-57
2022/12/13 10:30:59;;;;;;;13.27;8.75;;;20.10;49.80;;;;;;4974148;28;20050;-58
2022/12/13 10:33:32;;;;;;;14.02;9.20;;;20.10;49.90;;;;;;4973808;28;20082;-57
2022/12/13 10:36:33;;;;;;;12.43;8.63;;;20.10;49.90;;;;;;4973865;28;20495;-57
2022/12/13 10:39:00;;;;;;;14.10;8.05;;;20.10;49.90;;;;;;4974124;28;20561;-56
2022/12/13 10:41:33;;;;;;;13.70;8.45;;;20.10;49.90;;;;;;4975269;28;20047;-57
2022/12/13 10:44:07;;;;;;;13.68;8.57;;;20.10;49.90;;;;;;4974509;28;20066;-57
2022/12/13 10:46:32;;;;;;;13.55;8.98;;;20.10;49.60;;;;;;4975186;28;20053;-57
2022/12/13 10:48:58;;;;;;;13.73;8.95;;;20.10;49.70;;;;;;4973507;28;20130;-57
2022/12/13 10:51:24;;;;;;;12.13;8.73;;;20.10;49.60;;;;;;4977922;28;20035;-57
2022/12/13 10:53:57;;;;;;;14.77;8.93;;;20.10;49.60;;;;;;4984854;28;20046;-58
2022/12/13 10:56:31;;;;;;;14.10;8.20;;;20.10;49.80;;;;;;4984727;28;20517;-57
2022/12/13 10:59:10;;;;;;;13.32;8.40;;;20.10;49.80;;;;;;4984149;28;20042;-57
2022/12/13 11:01:36;;;;;;;13.80;8.80;;;20.00;49.90;;;;;;4983597;28;20553;-57
2022/12/13 11:04:18;;;;;;;13.38;8.10;;;20.00;49.80;;;;;;4965860;28;20035;-58
2022/12/13 11:06:45;;;;;;;12.13;8.05;;;20.00;49.60;;;;;;4983347;28;20128;-57
2022/12/13 11:09:28;;;;;;;12.85;8.80;;;20.00;49.70;;;;;;4993966;28;20108;-57
2022/12/13 11:11:55;;;;;;;14.35;8.80;;;20.10;49.80;;;;;;4985485;28;20441;-58
2022/12/13 11:14:42;;;;;;;14.02;8.43;;;20.10;49.60;;;;;;4986725;28;20057;-58
2022/12/13 11:17:12;;;;;;;11.13;7.67;;;20.00;49.50;;;;;;4985478;28;20077;-57
2022/12/13 11:19:39;;;;;;;14.80;8.77;;;20.10;49.60;;;;;;4992799;28;20305;-57
2022/12/13 11:22:06;;;;;;;12.30;8.38;;;20.10;49.70;;;;;;4992505;28;20500;-58
2022/12/13 11:24:33;;;;;;;13.00;8.65;;;20.10;49.80;;;;;;4992170;28;20125;-57
2022/12/13 11:27:35;;;;;;;12.15;8.10;;;20.10;49.90;;;;;;4992209;28;20097;-57
2022/12/13 11:30:00;;;;;;;12.20;8.20;;;20.10;50.00;;;;;;4994187;28;20046;-57
2022/12/13 11:32:34;;;;;;;12.55;8.20;;;20.10;49.90;;;;;;4993503;28;20092;-57
2022/12/13 11:35:01;;;;;;;13.25;7.80;;;20.10;50.00;;;;;;4992901;28;20540;-57
2022/12/13 11:37:47;;;;;;;16.58;8.90;;;20.10;50.10;;;;;;4993841;28;20069;-57
2022/12/13 11:40:27;;;;;;;12.15;7.97;;;20.10;50.20;;;;;;4986862;28;20050;-57
2022/12/13 11:42:54;;;;;;;13.25;7.20;;;20.20;50.30;;;;;;4977847;28;20046;-57
2022/12/13 11:45:32;;;;;;;11.75;7.68;;;20.10;50.20;;;;;;4991112;28;20097;-57
2022/12/13 11:48:20;;;;;;;15.63;8.60;;;20.10;50.00;;;;;;4991589;28;20073;-57
2022/12/13 11:50:47;;;;;;;13.77;7.95;;;20.10;49.90;;;;;;4992535;28;20053;-57
2022/12/13 11:53:21;;;;;;;11.43;8.18;;;20.10;50.00;;;;;;4975918;28;20057;-57
2022/12/13 11:56:07;;;;;;;12.10;8.30;;;20.10;49.80;;;;;;4993343;28;20057;-57
2022/12/13 11:59:00;;;;;;;13.02;9.32;;;20.10;49.70;;;;;;4991838;28;20473;-57
2022/12/13 12:02:05;;;;;;;12.35;8.35;;;20.10;49.70;;;;;;4991437;28;20046;-57
2022/12/13 12:04:37;;;;;;;17.83;8.10;;;20.10;49.70;;;;;;4951892;29;20050;-57
2022/12/13 12:07:15;;;;;;;11.82;7.75;;;20.10;49.70;;;;;;4982281;28;20062;-58
2022/12/13 12:09:41;;;;;;;;;;;20.00;49.60;;;;;;4993834;28;20053;-57
2022/12/13 12:12:20;;;;;;;12.93;8.23;;;20.00;49.30;;;;;;4992559;28;19929;-57
2022/12/13 12:14:59;;;;;;;13.57;8.18;;;20.00;49.50;;;;;;4991875;28;20150;-58
2022/12/13 12:17:25;;;;;;;13.07;7.95;;;20.00;49.50;;;;;;4984687;28;20566;-56
2022/12/13 12:19:55;;;;;;;14.10;8.30;;;20.00;49.50;;;;;;4961248;28;20031;-57
2022/12/13 12:22:41;;;;;;;14.57;8.05;;;20.00;49.40;;;;;;4971327;28;20077;-59
2022/12/13 12:25:38;;;;;;;12.32;8.10;;;20.00;49.60;;;;;;4973135;28;20129;-57
2022/12/13 12:28:26;;;;;;;12.45;7.90;;;20.00;49.60;;;;;;4972667;28;20039;-57
2022/12/13 12:31:07;;;;;;;11.18;7.80;;;20.00;49.70;;;;;;4971181;28;20055;-57
2022/12/13 12:33:36;;;;;;;11.07;7.82;;;19.90;49.70;;;;;;4957293;28;20054;-57
2022/12/13 12:36:26;;;;;;;10.77;7.53;;;20.00;49.90;;;;;;4973129;28;20038;-57
2022/12/13 12:39:01;;;;;;;11.93;7.47;;;20.00;49.90;;;;;;4973518;28;20483;-57
2022/12/13 12:41:32;;;;;;;9.65;7.18;;;20.00;50.00;;;;;;4972942;28;20039;-58
2022/12/13 12:44:26;;;;;;;11.18;7.65;;;20.00;49.90;;;;;;4971993;28;20141;-58
2022/12/13 12:47:03;;;;;;;13.15;7.90;;;20.00;50.00;;;;;;4974111;28;20038;-57